sensor_id;sensor_type;location;lat;lon;timestamp;pressure;altitude;pressure_sealevel;temperature;humidity
41688;BME280;27371;42.686;23.362;2024-02-14T00:01:51;163552.97;;;5.20;92.44
41688;BME280;27371;42.686;23.362;2024-02-14T00:04:17;163565.00;;;5.25;92.05
41688;BME280;27371;42.686;23.362;2024-02-14T00:06:43;163531.69;;;5.12;91.97
41688;BME280;27371;42.686;23.362;2024-02-14T00:09:10;163574.28;;;5.28;91.89
41688;BME280;27371;42.686;23.362;2024-02-14T00:11:36;163572.97;;;5.28;91.63
41688;BME280;27371;42.686;23.362;2024-02-14T00:14:02;163584.97;;;5.32;91.71
41688;BME280;27371;42.686;23.362;2024-02-14T00:16:28;163587.63;;;5.33;91.80
41688;BME280;27371;42.686;23.362;2024-02-14T00:18:56;163558.31;;;5.22;91.21
41688;BME280;27371;42.686;23.362;2024-02-14T00:21:23;163507.72;;;5.03;91.70
41688;BME280;27371;42.686;23.362;2024-02-14T00:23:50;163487.75;;;4.95;91.94
41688;BME280;27371;42.686;23.362;2024-02-14T00:26:15;163489.06;;;4.96;92.40
41688;BME280;27371;42.686;23.362;2024-02-14T00:28:41;163466.44;;;4.87;92.93
41688;BME280;27371;42.686;23.362;2024-02-14T00:31:06;163497.03;;;4.99;93.16
41688;BME280;27371;42.686;23.362;2024-02-14T00:33:32;163494.41;;;4.98;93.45
41688;BME280;27371;42.686;23.362;2024-02-14T00:35:57;163501.06;;;5.00;93.21
41688;BME280;27371;42.686;23.362;2024-02-14T00:38:23;163502.38;;;5.01;92.83
41688;BME280;27371;42.686;23.362;2024-02-14T00:40:48;163511.69;;;5.04;92.76
41688;BME280;27371;42.686;23.362;2024-02-14T00:43:14;163515.72;;;5.06;92.16
41688;BME280;27371;42.686;23.362;2024-02-14T00:45:39;163537.00;;;5.14;91.97
41688;BME280;27371;42.686;23.362;2024-02-14T00:48:05;163530.34;;;5.11;91.80
41688;BME280;27371;42.686;23.362;2024-02-14T00:50:32;163542.34;;;5.16;91.41
41688;BME280;27371;42.686;23.362;2024-02-14T00:52:59;163562.34;;;5.24;91.01
41688;BME280;27371;42.686;23.362;2024-02-14T00:55:24;163570.34;;;5.27;91.13
41688;BME280;27371;42.686;23.362;2024-02-14T00:57:50;163570.34;;;5.27;91.32
41688;BME280;27371;42.686;23.362;2024-02-14T01:02:44;163587.63;;;5.33;90.37
41688;BME280;27371;42.686;23.362;2024-02-14T01:05:10;163568.97;;;5.26;90.45
41688;BME280;27371;42.686;23.362;2024-02-14T01:07:36;163582.28;;;5.31;90.41
41688;BME280;27371;42.686;23.362;2024-02-14T01:10:02;163558.31;;;5.22;90.11
41688;BME280;27371;42.686;23.362;2024-02-14T01:12:28;163522.38;;;5.08;89.79
41688;BME280;27371;42.686;23.362;2024-02-14T01:14:57;163483.78;;;4.94;90.41
41688;BME280;27371;42.686;23.362;2024-02-14T01:17:23;163461.09;;;4.85;91.53
41688;BME280;27371;42.686;23.362;2024-02-14T01:19:50;163463.78;;;4.86;92.31
41688;BME280;27371;42.686;23.362;2024-02-14T01:22:16;163485.09;;;4.94;92.58
41688;BME280;27371;42.686;23.362;2024-02-14T01:24:44;163493.06;;;4.97;92.56
41688;BME280;27371;42.686;23.362;2024-02-14T01:27:10;163497.03;;;4.99;92.22
41688;BME280;27371;42.686;23.362;2024-02-14T01:29:36;163502.38;;;5.01;92.29
41688;BME280;27371;42.686;23.362;2024-02-14T01:32:01;163467.75;;;4.87;91.86
41688;BME280;27371;42.686;23.362;2024-02-14T01:34:27;163517.03;;;5.06;91.51
41688;BME280;27371;42.686;23.362;2024-02-14T01:36:56;163529.03;;;5.11;91.22
41688;BME280;27371;42.686;23.362;2024-02-14T01:39:21;163543.69;;;5.17;91.11
41688;BME280;27371;42.686;23.362;2024-02-14T01:41:47;163559.66;;;5.23;90.61
41688;BME280;27371;42.686;23.362;2024-02-14T01:44:17;163572.97;;;5.28;90.47
41688;BME280;27371;42.686;23.362;2024-02-14T01:46:43;163578.31;;;5.30;90.11
41688;BME280;27371;42.686;23.362;2024-02-14T01:49:10;163582.28;;;5.31;89.95
41688;BME280;27371;42.686;23.362;2024-02-14T01:51:40;163575.63;;;5.29;89.74
41688;BME280;27371;42.686;23.362;2024-02-14T01:54:08;163594.28;;;5.36;89.39
41688;BME280;27371;42.686;23.362;2024-02-14T01:56:34;163560.97;;;5.23;89.17
41688;BME280;27371;42.686;23.362;2024-02-14T01:59:00;163570.34;;;5.27;89.13
41688;BME280;27371;42.686;23.362;2024-02-14T02:01:26;163507.72;;;5.03;88.67
41688;BME280;27371;42.686;23.362;2024-02-14T02:03:53;163521.03;;;5.08;88.45
41688;BME280;27371;42.686;23.362;2024-02-14T02:06:19;163486.41;;;4.95;89.45
41688;BME280;27371;42.686;23.362;2024-02-14T02:08:45;163409.19;;;4.65;90.64
41688;BME280;27371;42.686;23.362;2024-02-14T02:11:11;163438.47;;;4.76;91.71
41688;BME280;27371;42.686;23.362;2024-02-14T02:13:36;163466.44;;;4.87;91.97
41688;BME280;27371;42.686;23.362;2024-02-14T02:16:05;163483.78;;;4.94;91.66
41688;BME280;27371;42.686;23.362;2024-02-14T02:18:31;163493.06;;;4.97;91.39
41688;BME280;27371;42.686;23.362;2024-02-14T02:20:57;163463.78;;;4.86;91.45
41688;BME280;27371;42.686;23.362;2024-02-14T02:23:23;163502.38;;;5.01;91.18
41688;BME280;27371;42.686;23.362;2024-02-14T02:25:48;163495.72;;;4.98;90.50
41688;BME280;27371;42.686;23.362;2024-02-14T02:28:16;163545.00;;;5.17;90.23
41688;BME280;27371;42.686;23.362;2024-02-14T02:30:41;163557.00;;;5.22;89.47
41688;BME280;27371;42.686;23.362;2024-02-14T02:33:07;163555.69;;;5.21;88.80
41688;BME280;27371;42.686;23.362;2024-02-14T02:35:34;163525.00;;;5.09;88.78
41688;BME280;27371;42.686;23.362;2024-02-14T02:38:00;163552.97;;;5.20;88.78
41688;BME280;27371;42.686;23.362;2024-02-14T02:40:25;163563.66;;;5.24;88.62
41688;BME280;27371;42.686;23.362;2024-02-14T02:42:53;163533.00;;;5.12;88.48
41688;BME280;27371;42.686;23.362;2024-02-14T02:45:19;163552.97;;;5.20;88.47
41688;BME280;27371;42.686;23.362;2024-02-14T02:47:44;163543.69;;;5.17;88.23
41688;BME280;27371;42.686;23.362;2024-02-14T02:50:10;163558.31;;;5.22;87.91
41688;BME280;27371;42.686;23.362;2024-02-14T02:52:35;163537.00;;;5.14;87.21
41688;BME280;27371;42.686;23.362;2024-02-14T02:55:01;163490.38;;;4.96;87.98
41688;BME280;27371;42.686;23.362;2024-02-14T02:57:29;163446.44;;;4.79;88.60
41688;BME280;27371;42.686;23.362;2024-02-14T02:59:57;163439.78;;;4.77;89.71
41688;BME280;27371;42.686;23.362;2024-02-14T03:02:23;163446.44;;;4.79;90.27
41688;BME280;27371;42.686;23.362;2024-02-14T03:04:50;163459.78;;;4.84;90.13
41688;BME280;27371;42.686;23.362;2024-02-14T03:07:16;163438.47;;;4.76;90.11
41688;BME280;27371;42.686;23.362;2024-02-14T03:09:41;163465.09;;;4.86;89.92
41688;BME280;27371;42.686;23.362;2024-02-14T03:12:07;163469.13;;;4.88;90.04
41688;BME280;27371;42.686;23.362;2024-02-14T03:14:34;163461.09;;;4.85;89.79
41688;BME280;27371;42.686;23.362;2024-02-14T03:17:04;163477.09;;;4.91;89.64
41688;BME280;27371;42.686;23.362;2024-02-14T03:19:29;163474.41;;;4.90;89.38
41688;BME280;27371;42.686;23.362;2024-02-14T03:21:55;163469.13;;;4.88;89.20
41688;BME280;27371;42.686;23.362;2024-02-14T03:24:22;163475.75;;;4.90;88.82
41688;BME280;27371;42.686;23.362;2024-02-14T03:26:47;163537.00;;;5.14;88.42
41688;BME280;27371;42.686;23.362;2024-02-14T03:29:16;163443.81;;;4.78;88.05
41688;BME280;27371;42.686;23.362;2024-02-14T03:31:42;163550.34;;;5.19;87.92
41688;BME280;27371;42.686;23.362;2024-02-14T03:34:09;163554.31;;;5.21;87.20
41688;BME280;27371;42.686;23.362;2024-02-14T03:36:37;163551.66;;;5.20;87.26
41688;BME280;27371;42.686;23.362;2024-02-14T03:39:03;163563.66;;;5.24;87.47
41688;BME280;27371;42.686;23.362;2024-02-14T03:41:30;163547.66;;;5.18;87.08
41688;BME280;27371;42.686;23.362;2024-02-14T03:43:55;163560.97;;;5.23;86.47
41688;BME280;27371;42.686;23.362;2024-02-14T03:46:24;163521.03;;;5.08;86.21
41688;BME280;27371;42.686;23.362;2024-02-14T03:48:50;163471.78;;;4.89;86.56
41688;BME280;27371;42.686;23.362;2024-02-14T03:51:15;163455.81;;;4.83;87.62
41688;BME280;27371;42.686;23.362;2024-02-14T03:53:41;163411.88;;;4.66;88.17
41688;BME280;27371;42.686;23.362;2024-02-14T03:56:07;163450.47;;;4.81;89.23
41688;BME280;27371;42.686;23.362;2024-02-14T03:58:33;163451.78;;;4.81;89.19
41688;BME280;27371;42.686;23.362;2024-02-14T04:01:05;163462.47;;;4.85;88.94
41688;BME280;27371;42.686;23.362;2024-02-14T04:03:31;163414.50;;;4.67;88.67
41688;BME280;27371;42.686;23.362;2024-02-14T04:05:57;163441.16;;;4.77;88.52
41688;BME280;27371;42.686;23.362;2024-02-14T04:08:23;163469.13;;;4.88;88.27
41688;BME280;27371;42.686;23.362;2024-02-14T04:10:49;163495.72;;;4.98;87.81
41688;BME280;27371;42.686;23.362;2024-02-14T04:13:20;163502.38;;;5.01;87.32
41688;BME280;27371;42.686;23.362;2024-02-14T04:15:46;163461.09;;;4.85;87.09
41688;BME280;27371;42.686;23.362;2024-02-14T04:18:13;163515.72;;;5.06;87.07
41688;BME280;27371;42.686;23.362;2024-02-14T04:20:39;163514.38;;;5.05;86.58
41688;BME280;27371;42.686;23.362;2024-02-14T04:23:06;163519.72;;;5.07;86.62
41688;BME280;27371;42.686;23.362;2024-02-14T04:25:33;163534.38;;;5.13;86.54
41688;BME280;27371;42.686;23.362;2024-02-14T04:27:59;163539.66;;;5.15;85.83
41688;BME280;27371;42.686;23.362;2024-02-14T04:30:25;163535.69;;;5.13;85.88
41688;BME280;27371;42.686;23.362;2024-02-14T04:32:51;163529.03;;;5.11;85.93
41688;BME280;27371;42.686;23.362;2024-02-14T04:35:19;163521.03;;;5.08;85.90
41688;BME280;27371;42.686;23.362;2024-02-14T04:37:45;163478.44;;;4.91;85.57
41688;BME280;27371;42.686;23.362;2024-02-14T04:40:12;163410.50;;;4.65;85.89
41688;BME280;27371;42.686;23.362;2024-02-14T04:42:37;163256.13;;;4.06;87.05
41688;BME280;27371;42.686;23.362;2024-02-14T04:45:04;163367.91;;;4.49;88.16
41688;BME280;27371;42.686;23.362;2024-02-14T04:47:29;163393.22;;;4.59;89.02
41688;BME280;27371;42.686;23.362;2024-02-14T04:49:55;163346.59;;;4.41;89.05
41688;BME280;27371;42.686;23.362;2024-02-14T04:52:20;163393.22;;;4.59;89.03
41688;BME280;27371;42.686;23.362;2024-02-14T04:54:46;163399.88;;;4.61;88.84
41688;BME280;27371;42.686;23.362;2024-02-14T04:57:12;163379.91;;;4.54;88.58
41688;BME280;27371;42.686;23.362;2024-02-14T04:59:38;163361.25;;;4.46;88.99
41688;BME280;27371;42.686;23.362;2024-02-14T05:02:03;163411.88;;;4.66;89.01
41688;BME280;27371;42.686;23.362;2024-02-14T05:04:28;163419.84;;;4.69;88.20
41688;BME280;27371;42.686;23.362;2024-02-14T05:06:55;163433.19;;;4.74;88.18
41688;BME280;27371;42.686;23.362;2024-02-14T05:09:20;163429.16;;;4.73;88.17
41688;BME280;27371;42.686;23.362;2024-02-14T05:11:46;163405.22;;;4.63;88.13
41688;BME280;27371;42.686;23.362;2024-02-14T05:14:11;163375.94;;;4.52;89.20
41688;BME280;27371;42.686;23.362;2024-02-14T05:16:37;163359.91;;;4.46;89.35
41688;BME280;27371;42.686;23.362;2024-02-14T05:19:02;163357.28;;;4.45;89.90
41688;BME280;27371;42.686;23.362;2024-02-14T05:21:28;163387.88;;;4.57;93.23
41688;BME280;27371;42.686;23.362;2024-02-14T05:23:53;163487.75;;;4.95;91.25
41688;BME280;27371;42.686;23.362;2024-02-14T05:26:19;163469.13;;;4.88;89.18
41688;BME280;27371;42.686;23.362;2024-02-14T05:28:45;163458.44;;;4.84;88.58
41688;BME280;27371;42.686;23.362;2024-02-14T05:31:11;163459.78;;;4.84;87.45
41688;BME280;27371;42.686;23.362;2024-02-14T05:33:37;163422.50;;;4.70;87.22
41688;BME280;27371;42.686;23.362;2024-02-14T05:36:02;163377.25;;;4.53;87.38
41688;BME280;27371;42.686;23.362;2024-02-14T05:38:28;163361.25;;;4.46;88.76
41688;BME280;27371;42.686;23.362;2024-02-14T05:40:55;163365.25;;;4.48;89.55
41688;BME280;27371;42.686;23.362;2024-02-14T05:43:21;163367.91;;;4.49;89.90
41688;BME280;27371;42.686;23.362;2024-02-14T05:45:47;163375.94;;;4.52;89.95
41688;BME280;27371;42.686;23.362;2024-02-14T05:48:13;163374.56;;;4.52;89.51
41688;BME280;27371;42.686;23.362;2024-02-14T05:50:40;163381.22;;;4.54;89.42
41688;BME280;27371;42.686;23.362;2024-02-14T05:53:05;163389.19;;;4.57;89.05
41688;BME280;27371;42.686;23.362;2024-02-14T05:55:31;163393.22;;;4.59;88.93
41688;BME280;27371;42.686;23.362;2024-02-14T05:57:57;163402.53;;;4.62;88.06
41688;BME280;27371;42.686;23.362;2024-02-14T06:00:24;163433.19;;;4.74;87.92
41688;BME280;27371;42.686;23.362;2024-02-14T06:02:50;163437.13;;;4.76;86.92
41688;BME280;27371;42.686;23.362;2024-02-14T06:05:16;163435.81;;;4.75;87.13
41688;BME280;27371;42.686;23.362;2024-02-14T06:07:41;163445.13;;;4.79;86.59
41688;BME280;27371;42.686;23.362;2024-02-14T06:10:08;163423.81;;;4.71;86.71
41688;BME280;27371;42.686;23.362;2024-02-14T06:12:34;163454.44;;;4.82;86.11
41688;BME280;27371;42.686;23.362;2024-02-14T06:15:00;163438.47;;;4.76;86.20
41688;BME280;27371;42.686;23.362;2024-02-14T06:17:26;163473.09;;;4.89;85.68
41688;BME280;27371;42.686;23.362;2024-02-14T06:19:53;163454.44;;;4.82;85.24
41688;BME280;27371;42.686;23.362;2024-02-14T06:22:19;163453.09;;;4.82;84.67
41688;BME280;27371;42.686;23.362;2024-02-14T06:24:45;163401.19;;;4.62;84.90
41688;BME280;27371;42.686;23.362;2024-02-14T06:27:13;163363.94;;;4.47;85.71
41688;BME280;27371;42.686;23.362;2024-02-14T06:29:42;163337.28;;;4.37;86.38
41688;BME280;27371;42.686;23.362;2024-02-14T06:32:08;163270.75;;;4.12;87.04
41688;BME280;27371;42.686;23.362;2024-02-14T06:34:33;163347.97;;;4.41;87.18
41688;BME280;27371;42.686;23.362;2024-02-14T06:36:59;163343.94;;;4.40;86.67
41688;BME280;27371;42.686;23.362;2024-02-14T06:39:25;163382.53;;;4.55;90.55
41688;BME280;27371;42.686;23.362;2024-02-14T06:41:50;163414.50;;;4.67;86.22
41688;BME280;27371;42.686;23.362;2024-02-14T06:44:16;163381.22;;;4.54;85.80
41688;BME280;27371;42.686;23.362;2024-02-14T06:46:41;163379.91;;;4.54;84.82
41688;BME280;27371;42.686;23.362;2024-02-14T06:49:08;163329.31;;;4.34;85.05
41688;BME280;27371;42.686;23.362;2024-02-14T06:51:34;163385.22;;;4.56;84.92
41688;BME280;27371;42.686;23.362;2024-02-14T06:53:59;163398.56;;;4.61;84.48
41688;BME280;27371;42.686;23.362;2024-02-14T06:56:25;163426.50;;;4.72;84.11
41688;BME280;27371;42.686;23.362;2024-02-14T06:58:50;163437.13;;;4.76;83.71
41688;BME280;27371;42.686;23.362;2024-02-14T07:01:19;163451.78;;;4.81;83.22
41688;BME280;27371;42.686;23.362;2024-02-14T07:03:50;163417.16;;;4.68;82.86
41688;BME280;27371;42.686;23.362;2024-02-14T07:06:16;163385.22;;;4.56;82.86
41688;BME280;27371;42.686;23.362;2024-02-14T07:08:42;163342.63;;;4.39;83.33
41688;BME280;27371;42.686;23.362;2024-02-14T07:11:08;163371.91;;;4.51;84.06
41688;BME280;27371;42.686;23.362;2024-02-14T07:13:33;163349.28;;;4.42;83.82
41688;BME280;27371;42.686;23.362;2024-02-14T07:15:59;163411.88;;;4.66;83.54
41688;BME280;27371;42.686;23.362;2024-02-14T07:18:25;163399.88;;;4.61;82.10
41688;BME280;27371;42.686;23.362;2024-02-14T07:20:51;163377.25;;;4.53;81.66
41688;BME280;27371;42.686;23.362;2024-02-14T07:23:18;163421.19;;;4.69;82.32
41688;BME280;27371;42.686;23.362;2024-02-14T07:25:44;163411.88;;;4.66;81.89
41688;BME280;27371;42.686;23.362;2024-02-14T07:28:10;163482.41;;;4.93;81.82
41688;BME280;27371;42.686;23.362;2024-02-14T07:30:36;163503.72;;;5.01;81.00
41688;BME280;27371;42.686;23.362;2024-02-14T07:33:01;163522.38;;;5.08;80.29
41688;BME280;27371;42.686;23.362;2024-02-14T07:35:27;163511.69;;;5.04;79.60
41688;BME280;27371;42.686;23.362;2024-02-14T07:37:53;163527.72;;;5.10;78.99
41688;BME280;27371;42.686;23.362;2024-02-14T07:40:19;163541.03;;;5.16;78.57
41688;BME280;27371;42.686;23.362;2024-02-14T07:42:44;163563.66;;;5.24;78.73
41688;BME280;27371;42.686;23.362;2024-02-14T07:45:10;163572.97;;;5.28;78.42
41688;BME280;27371;42.686;23.362;2024-02-14T07:47:35;163562.34;;;5.24;78.57
41688;BME280;27371;42.686;23.362;2024-02-14T07:50:01;163546.31;;;5.18;78.75
41688;BME280;27371;42.686;23.362;2024-02-14T07:52:28;163562.34;;;5.24;78.36
41688;BME280;27371;42.686;23.362;2024-02-14T07:54:54;163531.69;;;5.12;78.15
41688;BME280;27371;42.686;23.362;2024-02-14T07:57:21;163461.09;;;4.85;78.98
41688;BME280;27371;42.686;23.362;2024-02-14T07:59:47;163437.13;;;4.76;79.64
41688;BME280;27371;42.686;23.362;2024-02-14T08:02:13;163438.47;;;4.76;80.27
41688;BME280;27371;42.686;23.362;2024-02-14T08:04:39;163449.13;;;4.80;80.23
41688;BME280;27371;42.686;23.362;2024-02-14T08:07:04;163459.78;;;4.84;80.03
41688;BME280;27371;42.686;23.362;2024-02-14T08:09:30;163455.81;;;4.83;79.65
41688;BME280;27371;42.686;23.362;2024-02-14T08:11:56;163451.78;;;4.81;79.82
41688;BME280;27371;42.686;23.362;2024-02-14T08:14:22;163463.78;;;4.86;79.76
41688;BME280;27371;42.686;23.362;2024-02-14T08:16:47;163479.75;;;4.92;79.66
41688;BME280;27371;42.686;23.362;2024-02-14T08:19:13;163482.41;;;4.93;78.98
41688;BME280;27371;42.686;23.362;2024-02-14T08:21:39;163473.09;;;4.89;79.00
41688;BME280;27371;42.686;23.362;2024-02-14T08:24:04;163470.44;;;4.88;78.91
41688;BME280;27371;42.686;23.362;2024-02-14T08:26:30;163478.44;;;4.91;78.93
41688;BME280;27371;42.686;23.362;2024-02-14T08:28:57;163465.09;;;4.86;79.00
41688;BME280;27371;42.686;23.362;2024-02-14T08:31:23;163478.44;;;4.91;78.68
41688;BME280;27371;42.686;23.362;2024-02-14T08:33:49;163431.81;;;4.74;78.53
41688;BME280;27371;42.686;23.362;2024-02-14T08:36:14;163497.03;;;4.99;78.27
41688;BME280;27371;42.686;23.362;2024-02-14T08:38:42;163487.75;;;4.95;78.00
41688;BME280;27371;42.686;23.362;2024-02-14T08:41:07;163445.13;;;4.79;78.34
41688;BME280;27371;42.686;23.362;2024-02-14T08:43:33;163502.38;;;5.01;78.44
41688;BME280;27371;42.686;23.362;2024-02-14T08:45:59;163461.09;;;4.85;77.77
41688;BME280;27371;42.686;23.362;2024-02-14T08:48:25;163413.19;;;4.66;78.82
41688;BME280;27371;42.686;23.362;2024-02-14T08:50:52;163401.19;;;4.62;79.49
41688;BME280;27371;42.686;23.362;2024-02-14T08:53:18;163378.56;;;4.53;79.57
41688;BME280;27371;42.686;23.362;2024-02-14T08:55:44;163410.50;;;4.65;79.10
41688;BME280;27371;42.686;23.362;2024-02-14T08:58:09;163418.47;;;4.68;78.99
41688;BME280;27371;42.686;23.362;2024-02-14T09:00:38;163422.50;;;4.70;78.45
41688;BME280;27371;42.686;23.362;2024-02-14T09:03:05;163422.50;;;4.70;78.35
41688;BME280;27371;42.686;23.362;2024-02-14T09:05:31;163450.47;;;4.81;78.12
41688;BME280;27371;42.686;23.362;2024-02-14T09:07:56;163467.75;;;4.87;78.01
41688;BME280;27371;42.686;23.362;2024-02-14T09:10:25;163474.41;;;4.90;77.95
41688;BME280;27371;42.686;23.362;2024-02-14T09:12:51;163513.06;;;5.05;77.72
41688;BME280;27371;42.686;23.362;2024-02-14T09:15:16;163514.38;;;5.05;77.13
41688;BME280;27371;42.686;23.362;2024-02-14T09:17:42;163531.69;;;5.12;77.31
41688;BME280;27371;42.686;23.362;2024-02-14T09:20:08;163519.72;;;5.07;76.56
41688;BME280;27371;42.686;23.362;2024-02-14T09:22:37;163507.72;;;5.03;76.94
41688;BME280;27371;42.686;23.362;2024-02-14T09:25:03;163506.41;;;5.02;76.90
41688;BME280;27371;42.686;23.362;2024-02-14T09:27:34;163498.41;;;4.99;77.01
41688;BME280;27371;42.686;23.362;2024-02-14T09:30:01;163509.03;;;5.03;77.29
41688;BME280;27371;42.686;23.362;2024-02-14T09:32:29;163470.44;;;4.88;77.22
41688;BME280;27371;42.686;23.362;2024-02-14T09:34:55;163434.50;;;4.75;77.95
41688;BME280;27371;42.686;23.362;2024-02-14T09:37:21;163383.91;;;4.55;78.57
41688;BME280;27371;42.686;23.362;2024-02-14T09:39:46;163394.53;;;4.59;79.28
41688;BME280;27371;42.686;23.362;2024-02-14T09:42:13;163389.19;;;4.57;78.56
41688;BME280;27371;42.686;23.362;2024-02-14T09:44:41;163371.91;;;4.51;78.49
41688;BME280;27371;42.686;23.362;2024-02-14T09:47:08;163382.53;;;4.55;78.74
41688;BME280;27371;42.686;23.362;2024-02-14T09:49:35;163382.53;;;4.55;78.85
41688;BME280;27371;42.686;23.362;2024-02-14T09:52:02;163381.22;;;4.54;78.95
41688;BME280;27371;42.686;23.362;2024-02-14T09:54:29;163390.56;;;4.58;79.08
41688;BME280;27371;42.686;23.362;2024-02-14T09:56:57;163419.84;;;4.69;79.05
41688;BME280;27371;42.686;23.362;2024-02-14T09:59:24;163413.19;;;4.66;78.75
41688;BME280;27371;42.686;23.362;2024-02-14T10:01:49;163427.84;;;4.72;78.32
41688;BME280;27371;42.686;23.362;2024-02-14T10:04:16;163443.81;;;4.78;78.27
41688;BME280;27371;42.686;23.362;2024-02-14T10:06:44;163467.75;;;4.87;77.51
41688;BME280;27371;42.686;23.362;2024-02-14T10:09:10;163486.41;;;4.95;76.96
41688;BME280;27371;42.686;23.362;2024-02-14T10:11:37;163442.47;;;4.78;76.82
41688;BME280;27371;42.686;23.362;2024-02-14T10:14:06;163447.81;;;4.80;76.48
41688;BME280;27371;42.686;23.362;2024-02-14T10:16:35;163443.81;;;4.78;77.00
41688;BME280;27371;42.686;23.362;2024-02-14T10:19:01;163474.41;;;4.90;77.50
41688;BME280;27371;42.686;23.362;2024-02-14T10:21:27;163497.03;;;4.99;76.90
41688;BME280;27371;42.686;23.362;2024-02-14T10:23:53;163430.47;;;4.73;76.02
41688;BME280;27371;42.686;23.362;2024-02-14T10:26:23;163406.53;;;4.64;76.72
41688;BME280;27371;42.686;23.362;2024-02-14T10:28:48;163397.19;;;4.60;77.22
41688;BME280;27371;42.686;23.362;2024-02-14T10:31:15;163382.53;;;4.55;77.08
41688;BME280;27371;42.686;23.362;2024-02-14T10:33:41;163363.94;;;4.47;76.91
41688;BME280;27371;42.686;23.362;2024-02-14T10:36:07;163425.16;;;4.71;76.54
41688;BME280;27371;42.686;23.362;2024-02-14T10:38:34;163438.47;;;4.76;75.85
41688;BME280;27371;42.686;23.362;2024-02-14T10:41:00;163442.47;;;4.78;75.46
41688;BME280;27371;42.686;23.362;2024-02-14T10:43:27;163434.50;;;4.75;75.64
41688;BME280;27371;42.686;23.362;2024-02-14T10:45:54;163474.41;;;4.90;74.78
41688;BME280;27371;42.686;23.362;2024-02-14T10:48:22;163489.06;;;4.96;74.24
41688;BME280;27371;42.686;23.362;2024-02-14T10:50:53;163505.09;;;5.02;74.56
41688;BME280;27371;42.686;23.362;2024-02-14T10:53:20;163498.41;;;4.99;74.04
41688;BME280;27371;42.686;23.362;2024-02-14T10:55:49;163505.09;;;5.02;73.84
41688;BME280;27371;42.686;23.362;2024-02-14T10:58:18;163535.69;;;5.13;73.61
41688;BME280;27371;42.686;23.362;2024-02-14T11:00:44;163507.72;;;5.03;73.66
41688;BME280;27371;42.686;23.362;2024-02-14T11:03:10;163558.31;;;5.22;73.63
41688;BME280;27371;42.686;23.362;2024-02-14T11:05:47;163555.69;;;5.21;73.02
41688;BME280;27371;42.686;23.362;2024-02-14T11:08:14;163575.63;;;5.29;73.16
41688;BME280;27371;42.686;23.362;2024-02-14T11:10:40;163550.34;;;5.19;72.83
41688;BME280;27371;42.686;23.362;2024-02-14T11:13:11;163523.69;;;5.09;73.16
41688;BME280;27371;42.686;23.362;2024-02-14T11:15:39;163442.47;;;4.78;73.39
41688;BME280;27371;42.686;23.362;2024-02-14T11:18:06;163453.09;;;4.82;74.34
41688;BME280;27371;42.686;23.362;2024-02-14T11:20:36;163438.47;;;4.76;74.77
41688;BME280;27371;42.686;23.362;2024-02-14T11:23:03;163457.13;;;4.83;74.76
41688;BME280;27371;42.686;23.362;2024-02-14T11:25:29;163459.78;;;4.84;74.28
41688;BME280;27371;42.686;23.362;2024-02-14T11:27:57;163471.78;;;4.89;74.20
41688;BME280;27371;42.686;23.362;2024-02-14T11:30:34;163474.41;;;4.90;74.06
41688;BME280;27371;42.686;23.362;2024-02-14T11:33:20;163489.06;;;4.96;74.42
41688;BME280;27371;42.686;23.362;2024-02-14T11:35:47;163438.47;;;4.76;73.91
41688;BME280;27371;42.686;23.362;2024-02-14T11:38:16;163517.03;;;5.06;73.87
41688;BME280;27371;42.686;23.362;2024-02-14T11:40:42;163525.00;;;5.09;73.74
41688;BME280;27371;42.686;23.362;2024-02-14T11:43:19;163533.00;;;5.12;73.47
41688;BME280;27371;42.686;23.362;2024-02-14T11:45:47;163542.34;;;5.16;73.69
41688;BME280;27371;42.686;23.362;2024-02-14T11:48:18;163558.31;;;5.22;73.07
41688;BME280;27371;42.686;23.362;2024-02-14T11:50:45;163533.00;;;5.12;72.81
41688;BME280;27371;42.686;23.362;2024-02-14T11:53:12;163518.34;;;5.07;72.71
41688;BME280;27371;42.686;23.362;2024-02-14T11:55:39;163580.97;;;5.31;72.54
41688;BME280;27371;42.686;23.362;2024-02-14T11:58:10;163577.00;;;5.29;72.56
41688;BME280;27371;42.686;23.362;2024-02-14T12:00:40;163506.41;;;5.02;72.52
41688;BME280;27371;42.686;23.362;2024-02-14T12:03:07;163535.69;;;5.13;72.20
41688;BME280;27371;42.686;23.362;2024-02-14T12:05:34;163489.06;;;4.96;73.23
41688;BME280;27371;42.686;23.362;2024-02-14T12:08:01;163461.09;;;4.85;74.35
41688;BME280;27371;42.686;23.362;2024-02-14T12:10:28;163473.09;;;4.89;73.98
41688;BME280;27371;42.686;23.362;2024-02-14T12:12:53;163486.41;;;4.95;73.79
41688;BME280;27371;42.686;23.362;2024-02-14T12:15:19;163507.72;;;5.03;73.30
41688;BME280;27371;42.686;23.362;2024-02-14T12:17:47;163461.09;;;4.85;72.96
41688;BME280;27371;42.686;23.362;2024-02-14T12:20:14;163525.00;;;5.09;72.89
41688;BME280;27371;42.686;23.362;2024-02-14T12:22:40;163554.31;;;5.21;72.59
41688;BME280;27371;42.686;23.362;2024-02-14T12:25:07;163568.97;;;5.26;72.14
41688;BME280;27371;42.686;23.362;2024-02-14T12:27:36;163598.31;;;5.38;71.83
41688;BME280;27371;42.686;23.362;2024-02-14T12:30:08;163614.28;;;5.44;71.56
41688;BME280;27371;42.686;23.362;2024-02-14T12:32:35;163635.59;;;5.52;71.51
41688;BME280;27371;42.686;23.362;2024-02-14T12:35:00;163647.53;;;5.56;71.37
41688;BME280;27371;42.686;23.362;2024-02-14T12:37:26;163647.53;;;5.56;70.45
41688;BME280;27371;42.686;23.362;2024-02-14T12:39:52;163647.53;;;5.56;70.24
41688;BME280;27371;42.686;23.362;2024-02-14T12:42:19;163666.22;;;5.64;70.58
41688;BME280;27371;42.686;23.362;2024-02-14T12:44:51;163686.22;;;5.71;69.99
41688;BME280;27371;42.686;23.362;2024-02-14T12:47:17;163698.16;;;5.76;69.71
41688;BME280;27371;42.686;23.362;2024-02-14T12:49:43;163670.25;;;5.65;69.48